Terminal Aerodrome Forecast
Issued by NWS

Current Version | Previous Version | Text Only | Print | Product List | Glossary On
Versions: 1 2 3 4 5 6 7 8 9 10 11 12 13 14 15 16 17 18
000
FTUS42 KMLB 271121
TAFSFB
TAF
KSFB 271121Z 2712/2812 28009KT P6SM -RA SCT015 SCT030 BKN100
     FM271500 32010KT P6SM VCSH SCT030 BKN060
     FM280100 VRB04KT P6SM VCSH FEW025 SCT050 BKN100=

USA.gov is the U.S. government's official web portal to all federal, state and local government web resources and services.